Time;durP1;ratioP1;P1;durP2;ratioP2;P2;SDS_P1;SDS_P2;PMS_P1;PMS_P2;Temp;Humidity;BMP_temperature;BMP_pressure;BME280_temperature;BME280_humidity;BME280_pressure;Samples;Min_cycle;Max_cycle;Signal;HPM_P1;HPM_P2
2021/12/11 00:01:17;;;;;;;;;;;1.20;99.90;;;;;;8403547;28;19924;-69
2021/12/11 00:05:22;;;;;;;;;;;1.20;99.90;;;;;;8389396;28;19924;-69
2021/12/11 00:09:30;;;;;;;;;;;1.20;99.90;;;;;;8393818;28;20282;-68
2021/12/11 00:13:36;;;;;;;;;;;1.10;99.90;;;;;;8401017;28;21521;-69
2021/12/11 00:17:38;;;;;;;;;;;1.10;99.90;;;;;;8391616;28;19924;-69
2021/12/11 00:21:40;;;;;;;;;;;1.10;99.90;;;;;;8389350;28;19978;-69
2021/12/11 00:25:43;;;;;;;;;;;1.10;99.90;;;;;;8401285;28;19947;-69
2021/12/11 00:29:44;;;;;;;;;;;1.10;99.90;;;;;;8392272;28;19929;-69
2021/12/11 00:33:47;;;;;;;;;;;1.10;99.90;;;;;;8394845;28;19928;-68
2021/12/11 00:37:49;;;;;;;;;;;1.10;99.90;;;;;;8390920;28;19940;-69
2021/12/11 00:41:55;;;;;;;;;;;1.10;99.90;;;;;;8368223;28;20381;-69
2021/12/11 00:45:58;;;;;;;;;;;1.00;99.90;;;;;;8386437;28;19925;-68
2021/12/11 00:50:07;;;;;;;;;;;1.00;99.90;;;;;;8402239;28;19925;-69
2021/12/11 00:54:09;;;;;;;;;;;1.00;99.90;;;;;;8394468;28;19924;-69
2021/12/11 00:58:16;;;;;;;;;;;1.00;99.90;;;;;;8391113;28;19928;-69
2021/12/11 01:02:18;;;;;;;;;;;1.00;99.90;;;;;;8392009;28;19924;-69
2021/12/11 01:06:23;;;;;;;;;;;1.00;99.90;;;;;;8395026;28;19925;-69
2021/12/11 01:10:27;;;;;;;;;;;1.00;99.90;;;;;;8377166;28;19982;-69
2021/12/11 01:14:40;;;;;;;;;;;1.00;99.90;;;;;;8403175;28;19924;-69
2021/12/11 01:18:43;;;;;;;;;;;1.00;99.90;;;;;;8393167;28;20618;-68
2021/12/11 01:22:46;;;;;;;;;;;1.00;99.90;;;;;;8386609;28;20008;-68
2021/12/11 01:26:50;;;;;;;;;;;1.00;99.90;;;;;;8371609;28;20012;-69
2021/12/11 01:30:52;;;;;;;;;;;1.00;99.90;;;;;;8389188;28;19935;-68
2021/12/11 01:34:55;;;;;;;;;;;1.00;99.90;;;;;;8375537;28;20522;-68
2021/12/11 01:38:58;;;;;;;;;;;0.90;99.90;;;;;;8394797;28;19931;-68
2021/12/11 01:43:02;;;;;;;;;;;0.90;99.90;;;;;;8392409;28;19972;-68
2021/12/11 01:47:14;;;;;;;;;;;0.90;99.90;;;;;;8391537;28;19924;-69
2021/12/11 01:51:18;;;;;;;;;;;0.90;99.90;;;;;;8385985;28;20272;-69
2021/12/11 01:55:25;;;;;;;;;;;0.90;99.90;;;;;;8388468;28;19932;-69
2021/12/11 01:59:32;;;;;;;;;;;0.90;99.90;;;;;;8392392;28;19925;-69
2021/12/11 02:03:34;;;;;;;;;;;1.00;99.90;;;;;;8375787;28;19952;-69
2021/12/11 02:07:43;;;;;;;;;;;1.00;99.90;;;;;;8393918;28;19928;-69
2021/12/11 02:11:47;;;;;;;;;;;1.00;99.90;;;;;;8392684;28;19929;-69
2021/12/11 02:15:52;;;;;;;;;;;1.00;99.90;;;;;;8382610;28;19925;-69
2021/12/11 02:19:55;;;;;;;;;;;1.00;99.90;;;;;;8395452;28;19964;-69
2021/12/11 02:24:08;;;;;;;;;;;1.10;99.90;;;;;;8375648;28;19924;-69
2021/12/11 02:28:09;;;;;;;;;;;1.10;99.90;;;;;;8395545;28;19984;-69
2021/12/11 02:32:14;;;;;;;;;;;1.20;99.90;;;;;;8386069;28;19982;-69
2021/12/11 02:36:27;;;;;;;;;;;1.20;99.90;;;;;;8396565;28;19929;-69
2021/12/11 02:40:36;;;;;;;;;;;1.20;99.90;;;;;;8385401;28;20113;-69
2021/12/11 02:44:40;;;;;;;;;;;1.20;99.90;;;;;;8389073;28;20388;-69
2021/12/11 02:48:46;;;;;;;;;;;1.20;99.90;;;;;;8384949;28;19938;-69
2021/12/11 02:52:53;;;;;;;;;;;1.20;99.90;;;;;;8388381;28;20051;-69
2021/12/11 02:56:58;;;;;;;;;;;1.20;99.90;;;;;;8385140;28;20276;-69
2021/12/11 03:01:03;;;;;;;;;;;1.20;99.90;;;;;;8393015;28;20443;-69
2021/12/11 03:05:10;;;;;;;;;;;1.20;99.90;;;;;;8389762;28;20015;-69
2021/12/11 03:09:14;;;;;;;;;;;1.30;99.90;;;;;;8388340;28;19925;-69
2021/12/11 03:13:16;;;;;;;;;;;1.30;99.90;;;;;;8386757;28;20154;-68
2021/12/11 03:17:19;;;;;;;;;;;1.30;99.90;;;;;;8388397;28;20015;-69
2021/12/11 03:21:20;;;;;;;;;;;1.40;99.90;;;;;;8379343;28;20007;-69
2021/12/11 03:25:25;;;;;;;;;;;1.40;99.90;;;;;;8393693;28;19932;-69
2021/12/11 03:29:26;;;;;;;;;;;1.40;99.90;;;;;;8388914;28;19964;-69
2021/12/11 03:33:30;;;;;;;;;;;1.50;99.90;;;;;;8388420;28;19932;-69
2021/12/11 03:37:32;;;;;;;;;;;1.50;99.90;;;;;;8386667;28;19928;-69
2021/12/11 03:41:34;;;;;;;;;;;1.50;99.90;;;;;;8391494;28;19933;-69
2021/12/11 03:45:37;;;;;;;;;;;1.50;99.90;;;;;;8388395;28;19924;-68
2021/12/11 03:49:38;;;;;;;;;;;1.50;99.90;;;;;;8392376;28;19994;-68
2021/12/11 03:53:40;;;;;;;;;;;1.60;99.90;;;;;;8395083;28;19925;-68
2021/12/11 03:57:44;;;;;;;;;;;1.60;99.90;;;;;;8393803;28;20275;-69
2021/12/11 04:01:49;;;;;;;;;;;1.70;99.90;;;;;;8388725;28;19935;-69
2021/12/11 04:05:51;;;;;;;;;;;1.70;99.90;;;;;;8395292;28;19931;-69
2021/12/11 04:09:53;;;;;;;;;;;1.70;99.90;;;;;;8377452;28;19986;-69
2021/12/11 04:13:56;;;;;;;;;;;1.70;99.90;;;;;;8388479;28;19963;-69
2021/12/11 04:17:58;;;;;;;;;;;1.70;99.90;;;;;;8395055;28;19972;-69
2021/12/11 04:22:00;;;;;;;;;;;1.80;99.90;;;;;;8393209;28;19933;-69
2021/12/11 04:26:02;;;;;;;;;;;1.80;99.90;;;;;;8385806;28;19925;-69
2021/12/11 04:30:05;;;;;;;;;;;1.80;99.90;;;;;;8396435;28;19963;-69
2021/12/11 04:34:08;;;;;;;;;;;1.80;99.90;;;;;;8379052;28;19971;-68
2021/12/11 04:38:11;;;;;;;;;;;1.80;99.90;;;;;;8381073;28;20377;-69
2021/12/11 04:42:41;;;;;;;;;;;1.90;99.90;;;;;;8386720;28;19932;-69
2021/12/11 04:46:38;;;;;;;;;;;1.90;99.90;;;;;;8381700;28;19968;-69
2021/12/11 04:51:10;;;;;;;;;;;1.90;99.90;;;;;;8384737;28;20018;-69
2021/12/11 05:04:11;;;;;;;;;;;1.90;99.90;;;;;;8377173;28;20464;-68
2021/12/11 05:12:33;;;;;;;;;;;1.90;99.90;;;;;;8384013;28;20004;-68
2021/12/11 05:16:35;;;;;;;;;;;2.00;99.90;;;;;;8387974;28;19935;-69
2021/12/11 05:20:37;;;;;;;;;;;2.00;99.90;;;;;;8377017;28;19928;-69
2021/12/11 05:24:42;;;;;;;;;;;2.10;99.90;;;;;;8379205;28;20620;-69
2021/12/11 05:28:44;;;;;;;;;;;2.10;99.90;;;;;;8377017;28;19936;-69
2021/12/11 05:32:47;;;;;;;;;;;2.10;99.90;;;;;;8370251;28;20598;-69
2021/12/11 05:36:48;;;;;;;;;;;2.20;99.90;;;;;;8376925;28;19924;-68
2021/12/11 05:40:56;;;;;;;;;;;2.30;99.90;;;;;;8382088;28;19924;-69
2021/12/11 05:44:57;;;;;;;;;;;2.30;99.90;;;;;;8380408;28;19935;-69
2021/12/11 05:48:59;;;;;;;;;;;2.40;99.90;;;;;;8375228;28;19990;-69
2021/12/11 05:53:02;;;;;;;;;;;2.40;99.90;;;;;;8384327;28;20404;-69
2021/12/11 05:57:07;;;;;;;;;;;2.50;99.90;;;;;;8365253;28;19925;-69
2021/12/11 06:01:09;;;;;;;;;;;2.50;99.90;;;;;;8383563;28;19955;-69
2021/12/11 06:05:11;;;;;;;;;;;2.60;99.90;;;;;;8378534;28;20253;-69
2021/12/11 06:09:14;;;;;;;;;;;2.60;99.90;;;;;;8380930;28;20340;-69
2021/12/11 06:13:16;;;;;;;;;;;2.60;99.90;;;;;;8370756;28;20248;-69
2021/12/11 06:17:21;;;;;;;;;;;2.60;99.90;;;;;;8365986;28;20380;-69
2021/12/11 06:21:23;;;;;;;;;;;2.60;99.90;;;;;;8368116;28;19963;-69
2021/12/11 06:25:27;;;;;;;;;;;2.60;99.90;;;;;;8366613;28;19986;-69
2021/12/11 06:29:28;;;;;;;;;;;2.70;99.90;;;;;;8383339;28;20360;-68
2021/12/11 06:33:31;;;;;;;;;;;2.70;99.90;;;;;;8369945;28;19925;-69
2021/12/11 06:37:33;;;;;;;;;;;2.70;99.90;;;;;;8379691;28;19925;-69
2021/12/11 06:41:36;;;;;;;;;;;2.80;99.90;;;;;;8376483;28;19925;-69
2021/12/11 06:45:38;;;;;;;;;;;2.80;99.90;;;;;;8380337;28;20335;-68
2021/12/11 06:49:40;;;;;;;;;;;2.90;99.90;;;;;;8393653;28;19924;-69
2021/12/11 06:53:52;;;;;;;;;;;3.00;99.90;;;;;;8382680;28;19928;-69
2021/12/11 06:57:54;;;;;;;;;;;3.00;99.90;;;;;;8379361;28;20399;-69
2021/12/11 07:01:59;;;;;;;;;;;3.10;99.90;;;;;;8389266;28;20012;-69
2021/12/11 07:06:00;;;;;;;;;;;3.10;99.90;;;;;;8372165;28;19929;-69
2021/12/11 07:10:06;;;;;;;;;;;3.10;99.90;;;;;;8376672;28;20850;-69
2021/12/11 07:14:08;;;;;;;;;;;3.20;99.90;;;;;;8375682;28;19980;-69
2021/12/11 07:18:10;;;;;;;;;;;3.20;99.90;;;;;;8364891;28;19936;-69
2021/12/11 07:22:12;;;;;;;;;;;3.30;99.90;;;;;;8369388;28;20386;-69
2021/12/11 07:26:22;;;;;;;;;;;3.30;99.90;;;;;;8378457;28;19924;-69
2021/12/11 07:30:25;;;;;;;;;;;3.30;99.90;;;;;;8383305;28;19939;-69
2021/12/11 07:34:26;;;;;;;;;;;3.30;99.90;;;;;;8363814;28;19972;-69
2021/12/11 07:38:29;;;;;;;;;;;3.40;99.90;;;;;;8380566;28;19975;-68
2021/12/11 07:42:31;;;;;;;;;;;3.40;99.90;;;;;;8379688;28;19957;-68
2021/12/11 07:46:34;;;;;;;;;;;3.40;99.90;;;;;;8377949;28;19972;-68
2021/12/11 07:50:36;;;;;;;;;;;3.50;99.90;;;;;;8379640;28;19993;-69
2021/12/11 07:54:38;;;;;;;;;;;3.50;99.90;;;;;;8381631;28;19971;-69
2021/12/11 07:58:40;;;;;;;;;;;3.50;99.90;;;;;;8376632;28;19972;-69
2021/12/11 08:02:41;;;;;;;;;;;3.50;99.90;;;;;;8371746;28;20463;-69
2021/12/11 08:06:43;;;;;;;;;;;3.50;99.90;;;;;;8375894;28;19928;-68
2021/12/11 08:10:47;;;;;;;;;;;3.50;99.90;;;;;;8379257;28;19966;-69
2021/12/11 08:14:50;;;;;;;;;;;3.50;99.90;;;;;;8381627;28;20262;-68
2021/12/11 08:18:53;;;;;;;;;;;3.60;99.90;;;;;;8374846;28;19968;-69
2021/12/11 08:22:55;;;;;;;;;;;3.60;99.90;;;;;;8384480;28;19924;-69
2021/12/11 08:27:01;;;;;;;;;;;3.60;99.90;;;;;;8382409;28;19924;-68
2021/12/11 08:31:03;;;;;;;;;;;3.70;99.90;;;;;;8363086;28;20295;-69
2021/12/11 08:35:07;;;;;;;;;;;3.70;99.90;;;;;;8380787;28;19931;-68
2021/12/11 08:39:11;;;;;;;;;;;3.80;99.90;;;;;;8382097;28;20033;-68
2021/12/11 08:43:13;;;;;;;;;;;3.80;99.90;;;;;;8385323;28;19928;-69
2021/12/11 08:47:16;;;;;;;;;;;3.90;99.90;;;;;;8380717;28;20317;-68
2021/12/11 08:51:29;;;;;;;;;;;3.90;99.90;;;;;;8384307;28;19936;-69
2021/12/11 08:55:33;;;;;;;;;;;4.00;99.90;;;;;;8384457;28;20403;-68
2021/12/11 08:59:36;;;;;;;;;;;4.00;99.90;;;;;;8367230;28;20357;-69
2021/12/11 09:03:59;;;;;;;;;;;4.00;99.90;;;;;;8384271;28;20418;-68
2021/12/11 09:08:07;;;;;;;;;;;4.10;99.90;;;;;;8381753;28;20374;-69
2021/12/11 09:12:35;;;;;;;;;;;4.10;99.90;;;;;;8384460;28;19933;-68
2021/12/11 09:16:37;;;;;;;;;;;4.20;99.90;;;;;;8371437;28;19928;-68
2021/12/11 09:20:47;;;;;;;;;;;4.20;99.90;;;;;;8397800;28;19940;-68
2021/12/11 09:24:54;;;;;;;;;;;4.20;99.90;;;;;;8381782;28;19932;-68
2021/12/11 09:28:58;;;;;;;;;;;4.30;99.90;;;;;;8382606;28;20383;-68
2021/12/11 09:33:03;;;;;;;;;;;4.30;99.90;;;;;;8383276;28;19924;-68
2021/12/11 09:37:06;;;;;;;;;;;4.40;99.90;;;;;;8381916;28;19929;-68
2021/12/11 09:41:20;;;;;;;;;;;4.40;99.90;;;;;;8383803;28;20374;-68
2021/12/11 09:45:25;;;;;;;;;;;4.50;99.90;;;;;;8380841;28;20001;-68
2021/12/11 09:49:29;;;;;;;;;;;4.50;99.90;;;;;;8381287;28;20387;-68
2021/12/11 09:53:33;;;;;;;;;;;4.60;99.90;;;;;;8381888;28;20062;-68
2021/12/11 09:57:36;;;;;;;;;;;4.60;99.90;;;;;;8359518;28;19924;-68
2021/12/11 10:01:40;;;;;;;;;;;4.70;99.90;;;;;;8381395;28;19928;-68
2021/12/11 10:05:49;;;;;;;;;;;4.70;99.90;;;;;;8381089;28;19940;-68
2021/12/11 10:09:53;;;;;;;;;;;4.70;99.90;;;;;;8383201;28;19929;-68
2021/12/11 10:14:00;;;;;;;;;;;4.80;99.90;;;;;;8378812;28;19964;-68
2021/12/11 10:18:22;;;;;;;;;;;4.90;99.90;;;;;;8374640;28;19932;-69
2021/12/11 10:22:29;;;;;;;;;;;4.90;99.90;;;;;;8383569;28;19942;-68
2021/12/11 10:26:32;;;;;;;;;;;5.00;99.90;;;;;;8380651;28;20380;-69
2021/12/11 10:30:36;;;;;;;;;;;5.00;99.90;;;;;;8378586;28;19971;-68
2021/12/11 10:34:42;;;;;;;;;;;4.90;99.90;;;;;;8375412;28;20323;-68
2021/12/11 10:38:45;;;;;;;;;;;4.90;99.90;;;;;;8377001;28;20036;-68
2021/12/11 10:42:58;;;;;;;;;;;5.00;99.90;;;;;;8379411;28;20376;-68
2021/12/11 10:47:02;;;;;;;;;;;5.00;99.90;;;;;;8377112;28;19925;-68
2021/12/11 10:51:07;;;;;;;;;;;5.00;99.90;;;;;;8378512;28;20217;-69
2021/12/11 10:55:13;;;;;;;;;;;5.00;99.90;;;;;;8350790;28;19967;-68
2021/12/11 10:59:20;;;;;;;;;;;5.00;99.90;;;;;;8375557;28;19975;-69
2021/12/11 11:03:23;;;;;;;;;;;5.10;99.90;;;;;;8377109;28;19929;-69
2021/12/11 11:07:25;;;;;;;;;;;5.10;99.90;;;;;;8350984;28;19960;-68
2021/12/11 11:11:30;;;;;;;;;;;5.10;99.90;;;;;;8379767;28;20052;-69
2021/12/11 11:15:33;;;;;;;;;;;5.10;99.90;;;;;;8371820;28;19970;-68
2021/12/11 11:19:36;;;;;;;;;;;5.10;99.90;;;;;;8377056;28;20039;-68
2021/12/11 11:23:39;;;;;;;;;;;5.10;99.90;;;;;;8378308;28;19932;-69
2021/12/11 11:27:42;;;;;;;;;;;5.20;99.90;;;;;;8376771;28;19924;-69
2021/12/11 11:31:45;;;;;;;;;;;5.20;99.90;;;;;;8375086;28;19931;-68
2021/12/11 11:35:48;;;;;;;;;;;5.30;99.90;;;;;;8376798;28;19924;-69
2021/12/11 11:39:49;;;;;;;;;;;5.30;99.90;;;;;;8377453;28;20300;-69
2021/12/11 11:43:51;;;;;;;;;;;5.30;99.90;;;;;;8372691;28;20023;-68
2021/12/11 11:47:54;;;;;;;;;;;5.30;99.90;;;;;;8343673;28;19979;-68
2021/12/11 11:51:58;;;;;;;;;;;5.30;99.90;;;;;;8341611;28;20387;-69
2021/12/11 11:56:03;;;;;;;;;;;5.40;99.90;;;;;;8338898;28;20390;-69
2021/12/11 12:00:08;;;;;;;;;;;5.50;99.90;;;;;;8341639;28;19971;-69
2021/12/11 12:04:15;;;;;;;;;;;5.60;99.90;;;;;;8346778;28;19971;-68
2021/12/11 12:08:17;;;;;;;;;;;5.70;99.90;;;;;;8345289;28;19932;-68
2021/12/11 12:12:22;;;;;;;;;;;5.90;99.90;;;;;;8351647;28;19987;-68
2021/12/11 12:16:23;;;;;;;;;;;6.30;99.90;;;;;;8352490;28;19925;-69
2021/12/11 12:20:26;;;;;;;;;;;6.70;99.90;;;;;;8353155;28;19931;-68
2021/12/11 12:24:31;;;;;;;;;;;7.30;99.90;;;;;;8353087;28;20377;-69
2021/12/11 12:28:33;;;;;;;;;;;7.60;99.90;;;;;;8373845;28;20035;-68
2021/12/11 12:32:36;;;;;;;;;;;7.50;99.90;;;;;;8350959;28;20416;-69
2021/12/11 12:36:39;;;;;;;;;;;7.30;99.90;;;;;;8351478;28;19939;-68
2021/12/11 12:40:48;;;;;;;;;;;7.10;99.90;;;;;;8354419;28;19956;-68
2021/12/11 12:44:52;;;;;;;;;;;7.00;99.90;;;;;;8382827;28;19928;-68
2021/12/11 12:48:54;;;;;;;;;;;7.10;99.90;;;;;;8384136;28;19947;-68
2021/12/11 12:52:57;;;;;;;;;;;7.50;99.90;;;;;;8368958;28;20435;-68
2021/12/11 12:57:11;;;;;;;;;;;8.20;99.90;;;;;;8384014;28;20356;-68
2021/12/11 13:01:17;;;;;;;;;;;9.10;99.90;;;;;;8356036;28;20566;-68
2021/12/11 13:05:24;;;;;;;;;;;10.20;99.90;;;;;;8366983;28;19932;-69
2021/12/11 13:09:35;;;;;;;;;;;11.00;99.90;;;;;;8383199;28;19933;-69
2021/12/11 13:13:37;;;;;;;;;;;11.30;99.90;;;;;;8384140;28;20402;-69
2021/12/11 13:17:41;;;;;;;;;;;11.10;99.90;;;;;;8363494;28;19931;-69
2021/12/11 13:21:48;;;;;;;;;;;10.70;99.90;;;;;;8383896;28;19935;-69
2021/12/11 13:25:56;;;;;;;;;;;10.40;99.90;;;;;;8385008;28;20016;-69
2021/12/11 13:30:00;;;;;;;;;;;10.20;99.90;;;;;;8381815;28;19928;-68
2021/12/11 13:34:03;;;;;;;;;;;10.00;99.90;;;;;;8379764;28;19921;-69
2021/12/11 13:38:06;;;;;;;;;;;9.90;99.90;;;;;;8379558;28;19986;-69
2021/12/11 13:42:10;;;;;;;;;;;9.80;99.90;;;;;;8386342;28;19982;-69
2021/12/11 13:46:12;;;;;;;;;;;9.80;99.90;;;;;;8379779;28;19949;-69
2021/12/11 13:50:17;;;;;;;;;;;9.80;99.90;;;;;;8379233;28;19947;-69
2021/12/11 13:54:19;;;;;;;;;;;9.80;99.90;;;;;;8384722;28;19931;-69
2021/12/11 13:58:21;;;;;;;;;;;9.70;99.90;;;;;;8380054;28;19960;-68
2021/12/11 14:02:25;;;;;;;;;;;9.50;99.90;;;;;;8383081;28;20431;-69
2021/12/11 14:06:28;;;;;;;;;;;9.30;99.90;;;;;;8379569;28;19920;-69
2021/12/11 14:10:35;;;;;;;;;;;9.10;99.90;;;;;;8383315;28;19947;-69
2021/12/11 14:14:38;;;;;;;;;;;8.90;99.90;;;;;;8381197;28;19931;-69
2021/12/11 14:18:40;;;;;;;;;;;8.80;99.90;;;;;;8380959;28;19974;-68
2021/12/11 14:22:42;;;;;;;;;;;8.70;99.90;;;;;;8354910;28;19920;-69
2021/12/11 14:26:45;;;;;;;;;;;8.60;99.90;;;;;;8377636;28;19975;-68
2021/12/11 14:30:49;;;;;;;;;;;8.50;99.90;;;;;;8381373;28;20012;-69
2021/12/11 14:34:51;;;;;;;;;;;8.40;99.90;;;;;;8379129;28;19978;-69
2021/12/11 14:39:00;;;;;;;;;;;8.30;99.90;;;;;;8381133;28;19928;-68
2021/12/11 14:43:02;;;;;;;;;;;8.10;99.90;;;;;;8379331;28;19920;-69
2021/12/11 14:47:06;;;;;;;;;;;8.10;99.90;;;;;;8380484;28;19927;-68
2021/12/11 14:51:14;;;;;;;;;;;8.00;99.90;;;;;;8381878;28;20015;-68
2021/12/11 14:55:20;;;;;;;;;;;7.90;99.90;;;;;;8360267;28;20007;-68
2021/12/11 14:59:24;;;;;;;;;;;7.90;99.90;;;;;;8376868;28;19972;-68
2021/12/11 15:03:27;;;;;;;;;;;7.80;99.90;;;;;;8377363;28;19920;-68
2021/12/11 15:07:29;;;;;;;;;;;7.70;99.90;;;;;;8376843;28;20386;-68
2021/12/11 15:11:33;;;;;;;;;;;7.60;99.90;;;;;;8378344;28;20299;-68
2021/12/11 15:15:36;;;;;;;;;;;7.60;99.90;;;;;;8378403;28;20019;-69
2021/12/11 15:19:39;;;;;;;;;;;7.40;99.90;;;;;;8376950;28;19974;-69
2021/12/11 15:23:45;;;;;;;;;;;7.30;99.90;;;;;;8376552;28;19920;-68
2021/12/11 15:27:48;;;;;;;;;;;7.20;99.90;;;;;;8377190;28;20140;-68
2021/12/11 15:31:58;;;;;;;;;;;7.10;99.90;;;;;;8351195;28;19927;-68
2021/12/11 15:36:01;;;;;;;;;;;7.00;99.90;;;;;;8378134;28;19924;-69
2021/12/11 15:40:04;;;;;;;;;;;6.90;99.90;;;;;;8396564;28;19964;-68
2021/12/11 15:44:06;;;;;;;;;;;6.80;99.90;;;;;;8357787;28;20268;-69
2021/12/11 15:48:07;;;;;;;;;;;6.70;99.90;;;;;;8387367;28;20004;-68
2021/12/11 15:52:09;;;;;;;;;;;6.60;99.90;;;;;;8399885;28;19920;-68
2021/12/11 15:56:11;;;;;;;;;;;6.50;99.90;;;;;;8383451;28;19964;-69
2021/12/11 16:00:14;;;;;;;;;;;6.40;99.90;;;;;;8367280;28;19968;-68
2021/12/11 16:04:23;;;;;;;;;;;6.30;99.90;;;;;;8384093;28;19951;-68
2021/12/11 16:08:24;;;;;;;;;;;6.30;99.90;;;;;;8367090;28;19927;-69
2021/12/11 16:12:27;;;;;;;;;;;6.20;99.90;;;;;;8374046;28;19970;-68
2021/12/11 16:16:35;;;;;;;;;;;6.10;99.90;;;;;;8380373;28;20069;-68
2021/12/11 16:20:44;;;;;;;;;;;6.10;99.90;;;;;;8381089;28;19924;-69
2021/12/11 16:24:53;;;;;;;;;;;6.00;99.90;;;;;;8381542;28;19959;-68
2021/12/11 16:28:55;;;;;;;;;;;5.90;99.90;;;;;;8379856;28;20391;-68
2021/12/11 16:32:57;;;;;;;;;;;5.90;99.90;;;;;;8384645;28;19978;-68
2021/12/11 16:36:59;;;;;;;;;;;5.80;99.90;;;;;;8382962;28;20309;-69
2021/12/11 16:41:16;;;;;;;;;;;5.70;99.90;;;;;;8385235;28;20016;-69
2021/12/11 16:45:19;;;;;;;;;;;5.70;99.90;;;;;;8379749;28;19975;-69
2021/12/11 16:49:24;;;;;;;;;;;5.70;99.90;;;;;;8375305;28;19963;-68
2021/12/11 16:53:27;;;;;;;;;;;5.70;99.90;;;;;;8353045;28;20333;-68
2021/12/11 16:57:29;;;;;;;;;;;5.70;99.90;;;;;;8372692;28;19971;-69
2021/12/11 17:01:33;;;;;;;;;;;5.70;99.90;;;;;;8376436;28;20011;-68
2021/12/11 17:05:36;;;;;;;;;;;5.70;99.90;;;;;;8373769;28;19924;-68
2021/12/11 17:09:40;;;;;;;;;;;5.70;99.90;;;;;;8382593;28;19929;-68
2021/12/11 17:13:42;;;;;;;;;;;5.60;99.90;;;;;;8358959;28;19920;-68
2021/12/11 17:17:44;;;;;;;;;;;5.60;99.90;;;;;;8370762;28;19961;-69
2021/12/11 17:21:46;;;;;;;;;;;5.60;99.90;;;;;;8380555;28;20387;-69
2021/12/11 17:25:49;;;;;;;;;;;5.60;99.90;;;;;;8359252;28;19959;-68
2021/12/11 17:29:53;;;;;;;;;;;5.60;99.90;;;;;;8382965;28;20388;-69
2021/12/11 17:33:55;;;;;;;;;;;5.60;99.90;;;;;;8384931;28;19920;-68
2021/12/11 17:37:57;;;;;;;;;;;5.60;99.90;;;;;;8378644;28;19967;-68
2021/12/11 17:42:00;;;;;;;;;;;5.60;99.90;;;;;;8380828;28;19974;-68
2021/12/11 17:46:03;;;;;;;;;;;5.70;99.90;;;;;;8389219;28;19924;-68
2021/12/11 17:50:05;;;;;;;;;;;5.70;99.90;;;;;;8377008;28;19986;-68
2021/12/11 17:54:09;;;;;;;;;;;5.70;99.90;;;;;;8370777;28;19921;-68
2021/12/11 17:58:12;;;;;;;;;;;5.70;99.90;;;;;;8383255;28;19970;-68
2021/12/11 18:02:18;;;;;;;;;;;5.60;99.90;;;;;;8383136;28;19963;-68
2021/12/11 18:06:21;;;;;;;;;;;5.60;99.90;;;;;;8361629;28;19960;-68
2021/12/11 18:10:26;;;;;;;;;;;5.60;99.90;;;;;;8360622;28;20391;-68
2021/12/11 18:14:31;;;;;;;;;;;5.50;99.90;;;;;;8365640;28;20012;-68
2021/12/11 18:18:36;;;;;;;;;;;5.40;99.90;;;;;;8381781;28;19971;-69
2021/12/11 18:22:39;;;;;;;;;;;5.40;99.90;;;;;;8383175;28;19928;-68
2021/12/11 18:26:41;;;;;;;;;;;5.30;99.90;;;;;;8378849;28;19981;-68
2021/12/11 18:30:43;;;;;;;;;;;5.30;99.90;;;;;;8354854;28;19963;-68
2021/12/11 18:34:45;;;;;;;;;;;5.30;99.90;;;;;;8383220;28;19959;-68
2021/12/11 18:38:48;;;;;;;;;;;5.30;99.90;;;;;;8374539;28;19962;-69
2021/12/11 18:42:49;;;;;;;;;;;5.30;99.90;;;;;;8375835;28;19943;-68
2021/12/11 18:46:51;;;;;;;;;;;5.30;99.90;;;;;;8379415;28;20345;-69
2021/12/11 18:51:04;;;;;;;;;;;5.30;99.90;;;;;;8378448;28;19996;-68
2021/12/11 18:55:07;;;;;;;;;;;5.40;99.90;;;;;;8368925;28;19924;-68
2021/12/11 18:59:12;;;;;;;;;;;5.40;99.90;;;;;;8379389;28;19920;-69
2021/12/11 19:03:14;;;;;;;;;;;5.40;99.90;;;;;;8391914;28;20410;-69
2021/12/11 19:07:16;;;;;;;;;;;5.40;99.90;;;;;;8377382;28;20003;-68
2021/12/11 19:11:20;;;;;;;;;;;5.30;99.90;;;;;;8363256;28;19928;-68
2021/12/11 19:15:25;;;;;;;;;;;5.30;99.90;;;;;;8372164;28;19955;-69
2021/12/11 19:19:27;;;;;;;;;;;5.30;99.90;;;;;;8358065;28;20307;-69
2021/12/11 19:23:28;;;;;;;;;;;5.20;99.90;;;;;;8397782;28;19924;-69
2021/12/11 19:27:32;;;;;;;;;;;5.20;99.90;;;;;;8384017;28;19963;-69
2021/12/11 19:31:36;;;;;;;;;;;5.20;99.90;;;;;;8363957;28;20351;-68
2021/12/11 19:35:39;;;;;;;;;;;5.10;99.90;;;;;;8386599;28;20054;-68
2021/12/11 19:39:44;;;;;;;;;;;5.10;99.90;;;;;;8378728;28;19959;-68
2021/12/11 19:43:47;;;;;;;;;;;5.10;99.90;;;;;;8383738;28;20108;-68
2021/12/11 19:47:50;;;;;;;;;;;5.10;99.90;;;;;;8382200;28;19924;-69
2021/12/11 19:51:52;;;;;;;;;;;5.10;99.90;;;;;;8365872;28;19932;-68
2021/12/11 19:55:56;;;;;;;;;;;5.10;99.90;;;;;;8383849;28;19935;-68
2021/12/11 20:00:01;;;;;;;;;;;5.10;99.90;;;;;;8376615;28;19981;-69
2021/12/11 20:04:06;;;;;;;;;;;5.10;99.90;;;;;;8377525;28;19936;-68
2021/12/11 20:08:09;;;;;;;;;;;5.00;99.90;;;;;;8379893;28;19931;-68
2021/12/11 20:12:15;;;;;;;;;;;5.00;99.90;;;;;;8374670;28;19927;-68
2021/12/11 20:16:19;;;;;;;;;;;5.10;99.90;;;;;;8379350;28;19921;-68
2021/12/11 20:20:22;;;;;;;;;;;5.10;99.90;;;;;;8363918;28;19928;-68
2021/12/11 20:24:24;;;;;;;;;;;5.10;99.90;;;;;;8377799;28;20011;-68
2021/12/11 20:28:27;;;;;;;;;;;5.10;99.90;;;;;;8396829;28;19920;-68
2021/12/11 20:32:28;;;;;;;;;;;5.10;99.90;;;;;;8380333;28;19967;-68
2021/12/11 20:36:30;;;;;;;;;;;5.10;99.90;;;;;;8354582;28;19931;-69
2021/12/11 20:40:35;;;;;;;;;;;5.10;99.90;;;;;;8380195;28;19928;-68
2021/12/11 20:44:38;;;;;;;;;;;5.10;99.90;;;;;;8376811;28;19956;-68
2021/12/11 20:48:40;;;;;;;;;;;5.10;99.90;;;;;;8365524;28;19947;-68
2021/12/11 20:52:41;;;;;;;;;;;5.10;99.90;;;;;;8394687;28;20031;-68
2021/12/11 20:56:43;;;;;;;;;;;5.10;99.90;;;;;;8357407;28;20007;-68
2021/12/11 21:00:49;;;;;;;;;;;5.10;99.90;;;;;;8387205;28;19958;-68
2021/12/11 21:04:53;;;;;;;;;;;5.10;99.90;;;;;;8388925;28;19924;-68
2021/12/11 21:08:58;;;;;;;;;;;5.10;99.90;;;;;;8369237;28;20019;-68
2021/12/11 21:13:03;;;;;;;;;;;5.10;99.90;;;;;;8387925;28;20020;-68
2021/12/11 21:17:07;;;;;;;;;;;5.10;99.90;;;;;;8385945;28;19920;-68
2021/12/11 21:21:11;;;;;;;;;;;5.10;99.90;;;;;;8383275;28;19978;-68
2021/12/11 21:25:16;;;;;;;;;;;5.10;99.90;;;;;;8381555;28;20155;-68
2021/12/11 21:29:18;;;;;;;;;;;5.20;99.90;;;;;;8365589;28;20431;-68
2021/12/11 21:33:27;;;;;;;;;;;5.20;99.90;;;;;;8397496;28;19959;-70
2021/12/11 21:37:30;;;;;;;;;;;5.20;99.90;;;;;;8379023;28;20023;-69
2021/12/11 21:41:34;;;;;;;;;;;5.20;99.90;;;;;;8363830;28;20363;-68
2021/12/11 21:45:40;;;;;;;;;;;5.20;99.90;;;;;;8378627;28;20023;-68
2021/12/11 21:49:47;;;;;;;;;;;5.20;99.90;;;;;;8380449;28;19924;-68
2021/12/11 21:53:51;;;;;;;;;;;5.20;99.90;;;;;;8352410;28;19967;-68
2021/12/11 21:57:56;;;;;;;;;;;5.20;99.90;;;;;;8377445;28;21526;-68
2021/12/11 22:01:59;;;;;;;;;;;5.20;99.90;;;;;;8384914;28;19924;-68
2021/12/11 22:06:06;;;;;;;;;;;5.20;99.90;;;;;;8386500;28;19929;-68
2021/12/11 22:10:10;;;;;;;;;;;5.20;99.90;;;;;;8391178;28;19931;-68
2021/12/11 22:14:13;;;;;;;;;;;5.20;99.90;;;;;;8379691;28;19928;-69
2021/12/11 22:18:15;;;;;;;;;;;5.20;99.90;;;;;;8370588;28;20005;-68
2021/12/11 22:22:18;;;;;;;;;;;5.20;99.90;;;;;;8380059;28;20264;-68
2021/12/11 22:26:23;;;;;;;;;;;5.20;99.90;;;;;;8382653;28;19925;-68
2021/12/11 22:30:27;;;;;;;;;;;5.20;99.90;;;;;;8379456;28;19975;-68
2021/12/11 22:34:29;;;;;;;;;;;5.20;99.90;;;;;;8380877;28;19924;-68
2021/12/11 22:38:33;;;;;;;;;;;5.20;99.90;;;;;;8382276;28;19968;-69
2021/12/11 22:42:36;;;;;;;;;;;5.20;99.90;;;;;;8382941;28;19924;-68
2021/12/11 22:46:41;;;;;;;;;;;5.20;99.90;;;;;;8385969;28;20383;-68
2021/12/11 22:50:52;;;;;;;;;;;5.20;99.90;;;;;;8384236;28;19939;-68
2021/12/11 22:54:56;;;;;;;;;;;5.20;99.90;;;;;;8376591;28;19971;-68
2021/12/11 22:59:00;;;;;;;;;;;5.30;99.90;;;;;;8375361;28;19944;-68
2021/12/11 23:03:03;;;;;;;;;;;5.30;99.90;;;;;;8365101;28;19925;-68
2021/12/11 23:07:08;;;;;;;;;;;5.30;99.90;;;;;;8383450;28;19928;-68
2021/12/11 23:11:15;;;;;;;;;;;5.30;99.90;;;;;;8361097;28;19972;-68
2021/12/11 23:15:23;;;;;;;;;;;5.20;99.90;;;;;;8355240;28;19943;-68
2021/12/11 23:19:31;;;;;;;;;;;5.20;99.90;;;;;;8375940;28;19932;-68
2021/12/11 23:23:40;;;;;;;;;;;5.20;99.90;;;;;;8376270;28;20420;-68
2021/12/11 23:27:45;;;;;;;;;;;5.30;99.90;;;;;;8382572;28;20402;-68
2021/12/11 23:31:53;;;;;;;;;;;5.30;99.90;;;;;;8365063;28;19956;-68
2021/12/11 23:35:59;;;;;;;;;;;5.30;99.90;;;;;;8363508;28;19956;-68
2021/12/11 23:40:06;;;;;;;;;;;5.30;99.90;;;;;;8363975;28;19924;-68
2021/12/11 23:44:11;;;;;;;;;;;5.30;99.90;;;;;;8374517;28;19987;-68
2021/12/11 23:48:18;;;;;;;;;;;5.30;99.90;;;;;;8371767;28;19972;-68
2021/12/11 23:52:22;;;;;;;;;;;5.30;99.90;;;;;;8380985;28;19925;-68
2021/12/11 23:56:26;;;;;;;;;;;5.30;99.90;;;;;;8379989;28;19960;-68
